sensor_id;sensor_type;location;lat;lon;timestamp;P1;durP1;ratioP1;P2;durP2;ratioP2
46334;SDS011;32051;48.882;9.210;2022-10-18T00:01:07;14.52;;;7.03;;
46334;SDS011;32051;48.882;9.210;2022-10-18T00:03:33;15.25;;;6.43;;
46334;SDS011;32051;48.882;9.210;2022-10-18T00:05:59;18.73;;;6.30;;
46334;SDS011;32051;48.882;9.210;2022-10-18T00:08:26;21.50;;;7.30;;
46334;SDS011;32051;48.882;9.210;2022-10-18T00:10:52;11.77;;;7.10;;
46334;SDS011;32051;48.882;9.210;2022-10-18T00:13:18;9.50;;;6.60;;
46334;SDS011;32051;48.882;9.210;2022-10-18T00:15:51;27.48;;;7.18;;
46334;SDS011;32051;48.882;9.210;2022-10-18T00:18:18;12.85;;;6.10;;
46334;SDS011;32051;48.882;9.210;2022-10-18T00:20:44;13.18;;;6.95;;
46334;SDS011;32051;48.882;9.210;2022-10-18T00:23:10;17.75;;;6.72;;
46334;SDS011;32051;48.882;9.210;2022-10-18T00:25:36;19.23;;;7.28;;
46334;SDS011;32051;48.882;9.210;2022-10-18T00:28:02;11.98;;;6.45;;
46334;SDS011;32051;48.882;9.210;2022-10-18T00:30:28;16.67;;;5.55;;
46334;SDS011;32051;48.882;9.210;2022-10-18T00:32:54;9.02;;;6.55;;
46334;SDS011;32051;48.882;9.210;2022-10-18T00:35:20;10.85;;;5.90;;
46334;SDS011;32051;48.882;9.210;2022-10-18T00:37:46;13.73;;;6.03;;
46334;SDS011;32051;48.882;9.210;2022-10-18T00:40:12;14.63;;;6.88;;
46334;SDS011;32051;48.882;9.210;2022-10-18T00:42:38;19.55;;;6.72;;
46334;SDS011;32051;48.882;9.210;2022-10-18T00:45:18;28.30;;;7.03;;
46334;SDS011;32051;48.882;9.210;2022-10-18T00:47:49;10.25;;;6.88;;
46334;SDS011;32051;48.882;9.210;2022-10-18T00:50:16;15.05;;;7.13;;
46334;SDS011;32051;48.882;9.210;2022-10-18T00:52:45;13.60;;;6.10;;
46334;SDS011;32051;48.882;9.210;2022-10-18T00:55:12;23.98;;;6.30;;
46334;SDS011;32051;48.882;9.210;2022-10-18T00:57:39;12.35;;;5.53;;
46334;SDS011;32051;48.882;9.210;2022-10-18T01:00:06;6.10;;;5.60;;
46334;SDS011;32051;48.882;9.210;2022-10-18T01:02:35;11.32;;;5.93;;
46334;SDS011;32051;48.882;9.210;2022-10-18T01:05:01;7.93;;;5.28;;
46334;SDS011;32051;48.882;9.210;2022-10-18T01:17:45;7.53;;;5.30;;
46334;SDS011;32051;48.882;9.210;2022-10-18T01:20:25;12.55;;;4.60;;
46334;SDS011;32051;48.882;9.210;2022-10-18T01:23:00;11.90;;;4.60;;
46334;SDS011;32051;48.882;9.210;2022-10-18T01:30:56;12.55;;;4.20;;
46334;SDS011;32051;48.882;9.210;2022-10-18T01:36:06;16.60;;;4.72;;
46334;SDS011;32051;48.882;9.210;2022-10-18T01:38:34;14.90;;;4.07;;
46334;SDS011;32051;48.882;9.210;2022-10-18T01:41:02;10.07;;;4.18;;
46334;SDS011;32051;48.882;9.210;2022-10-18T01:43:28;12.15;;;4.70;;
46334;SDS011;32051;48.882;9.210;2022-10-18T01:45:54;12.80;;;4.70;;
46334;SDS011;32051;48.882;9.210;2022-10-18T01:48:21;7.38;;;3.78;;
46334;SDS011;32051;48.882;9.210;2022-10-18T01:50:47;7.80;;;3.92;;
46334;SDS011;32051;48.882;9.210;2022-10-18T01:53:21;8.35;;;5.15;;
46334;SDS011;32051;48.882;9.210;2022-10-18T01:55:50;14.60;;;4.75;;
46334;SDS011;32051;48.882;9.210;2022-10-18T01:58:19;13.18;;;4.28;;
46334;SDS011;32051;48.882;9.210;2022-10-18T02:00:47;10.73;;;4.57;;
46334;SDS011;32051;48.882;9.210;2022-10-18T02:03:17;9.02;;;5.75;;
46334;SDS011;32051;48.882;9.210;2022-10-18T02:08:24;5.60;;;3.97;;
46334;SDS011;32051;48.882;9.210;2022-10-18T02:11:02;11.15;;;4.75;;
46334;SDS011;32051;48.882;9.210;2022-10-18T02:13:30;7.55;;;4.22;;
46334;SDS011;32051;48.882;9.210;2022-10-18T02:15:58;15.90;;;5.18;;
46334;SDS011;32051;48.882;9.210;2022-10-18T02:18:40;4.00;;;3.70;;
46334;SDS011;32051;48.882;9.210;2022-10-18T02:21:07;7.82;;;4.47;;
46334;SDS011;32051;48.882;9.210;2022-10-18T02:23:34;9.82;;;4.97;;
46334;SDS011;32051;48.882;9.210;2022-10-18T02:26:00;18.63;;;5.63;;
46334;SDS011;32051;48.882;9.210;2022-10-18T02:28:27;13.25;;;4.25;;
46334;SDS011;32051;48.882;9.210;2022-10-18T02:31:14;7.68;;;4.18;;
46334;SDS011;32051;48.882;9.210;2022-10-18T02:33:55;10.02;;;4.65;;
46334;SDS011;32051;48.882;9.210;2022-10-18T02:36:26;8.40;;;3.38;;
46334;SDS011;32051;48.882;9.210;2022-10-18T02:38:55;11.63;;;4.22;;
46334;SDS011;32051;48.882;9.210;2022-10-18T02:41:22;8.45;;;4.13;;
46334;SDS011;32051;48.882;9.210;2022-10-18T02:43:48;10.07;;;3.45;;
46334;SDS011;32051;48.882;9.210;2022-10-18T02:46:14;10.98;;;3.72;;
46334;SDS011;32051;48.882;9.210;2022-10-18T02:48:40;10.30;;;4.10;;
46334;SDS011;32051;48.882;9.210;2022-10-18T02:51:06;13.63;;;4.20;;
46334;SDS011;32051;48.882;9.210;2022-10-18T02:53:32;9.48;;;4.05;;
46334;SDS011;32051;48.882;9.210;2022-10-18T02:55:58;10.25;;;3.97;;
46334;SDS011;32051;48.882;9.210;2022-10-18T02:58:24;10.20;;;3.30;;
46334;SDS011;32051;48.882;9.210;2022-10-18T03:00:50;10.30;;;3.92;;
46334;SDS011;32051;48.882;9.210;2022-10-18T03:03:16;10.00;;;4.57;;
46334;SDS011;32051;48.882;9.210;2022-10-18T03:05:43;12.30;;;4.78;;
46334;SDS011;32051;48.882;9.210;2022-10-18T03:08:09;13.43;;;4.18;;
46334;SDS011;32051;48.882;9.210;2022-10-18T03:10:35;10.70;;;4.88;;
46334;SDS011;32051;48.882;9.210;2022-10-18T03:13:01;15.43;;;4.28;;
46334;SDS011;32051;48.882;9.210;2022-10-18T03:15:27;7.97;;;4.15;;
46334;SDS011;32051;48.882;9.210;2022-10-18T03:17:53;8.02;;;4.32;;
46334;SDS011;32051;48.882;9.210;2022-10-18T03:20:19;9.73;;;3.88;;
46334;SDS011;32051;48.882;9.210;2022-10-18T03:22:45;11.05;;;3.78;;
46334;SDS011;32051;48.882;9.210;2022-10-18T03:25:11;5.05;;;4.25;;
46334;SDS011;32051;48.882;9.210;2022-10-18T03:27:37;13.00;;;5.25;;
46334;SDS011;32051;48.882;9.210;2022-10-18T03:30:03;12.85;;;4.00;;
46334;SDS011;32051;48.882;9.210;2022-10-18T03:32:29;10.18;;;3.45;;
46334;SDS011;32051;48.882;9.210;2022-10-18T03:34:55;13.48;;;3.88;;
46334;SDS011;32051;48.882;9.210;2022-10-18T03:37:22;11.32;;;4.50;;
46334;SDS011;32051;48.882;9.210;2022-10-18T03:39:48;10.95;;;3.35;;
46334;SDS011;32051;48.882;9.210;2022-10-18T03:42:14;15.90;;;4.10;;
46334;SDS011;32051;48.882;9.210;2022-10-18T03:44:40;10.00;;;4.13;;
46334;SDS011;32051;48.882;9.210;2022-10-18T03:47:06;9.57;;;3.95;;
46334;SDS011;32051;48.882;9.210;2022-10-18T03:49:32;10.35;;;3.15;;
46334;SDS011;32051;48.882;9.210;2022-10-18T03:51:58;9.32;;;4.20;;
46334;SDS011;32051;48.882;9.210;2022-10-18T03:54:24;13.20;;;4.13;;
46334;SDS011;32051;48.882;9.210;2022-10-18T03:56:50;8.95;;;3.88;;
46334;SDS011;32051;48.882;9.210;2022-10-18T03:59:16;20.42;;;3.80;;
46334;SDS011;32051;48.882;9.210;2022-10-18T04:01:42;11.95;;;4.18;;
46334;SDS011;32051;48.882;9.210;2022-10-18T04:04:08;20.38;;;4.22;;
46334;SDS011;32051;48.882;9.210;2022-10-18T04:06:34;12.95;;;5.15;;
46334;SDS011;32051;48.882;9.210;2022-10-18T04:09:01;6.63;;;4.55;;
46334;SDS011;32051;48.882;9.210;2022-10-18T04:11:27;17.90;;;3.50;;
46334;SDS011;32051;48.882;9.210;2022-10-18T04:13:53;12.80;;;4.22;;
46334;SDS011;32051;48.882;9.210;2022-10-18T04:16:19;9.13;;;4.40;;
46334;SDS011;32051;48.882;9.210;2022-10-18T04:18:45;8.40;;;3.17;;
46334;SDS011;32051;48.882;9.210;2022-10-18T04:21:11;9.25;;;3.80;;
46334;SDS011;32051;48.882;9.210;2022-10-18T04:23:37;22.80;;;3.42;;
46334;SDS011;32051;48.882;9.210;2022-10-18T04:26:03;3.85;;;3.50;;
46334;SDS011;32051;48.882;9.210;2022-10-18T04:28:29;14.25;;;4.20;;
46334;SDS011;32051;48.882;9.210;2022-10-18T04:30:55;14.73;;;4.35;;
46334;SDS011;32051;48.882;9.210;2022-10-18T04:33:22;14.80;;;3.92;;
46334;SDS011;32051;48.882;9.210;2022-10-18T04:35:49;8.38;;;4.22;;
46334;SDS011;32051;48.882;9.210;2022-10-18T04:38:15;9.15;;;4.03;;
46334;SDS011;32051;48.882;9.210;2022-10-18T04:40:41;23.42;;;3.40;;
46334;SDS011;32051;48.882;9.210;2022-10-18T04:43:07;13.35;;;4.03;;
46334;SDS011;32051;48.882;9.210;2022-10-18T04:45:34;9.32;;;3.20;;
46334;SDS011;32051;48.882;9.210;2022-10-18T04:48:00;9.98;;;2.95;;
46334;SDS011;32051;48.882;9.210;2022-10-18T04:50:26;6.07;;;3.83;;
46334;SDS011;32051;48.882;9.210;2022-10-18T04:52:52;16.35;;;3.63;;
46334;SDS011;32051;48.882;9.210;2022-10-18T04:55:18;6.32;;;3.60;;
46334;SDS011;32051;48.882;9.210;2022-10-18T04:57:44;5.47;;;3.88;;
46334;SDS011;32051;48.882;9.210;2022-10-18T05:00:11;4.63;;;3.90;;
46334;SDS011;32051;48.882;9.210;2022-10-18T05:02:37;10.23;;;2.72;;
46334;SDS011;32051;48.882;9.210;2022-10-18T05:05:03;7.78;;;2.83;;
46334;SDS011;32051;48.882;9.210;2022-10-18T05:07:29;11.88;;;3.55;;
46334;SDS011;32051;48.882;9.210;2022-10-18T05:09:55;10.05;;;4.32;;
46334;SDS011;32051;48.882;9.210;2022-10-18T05:12:21;5.18;;;3.17;;
46334;SDS011;32051;48.882;9.210;2022-10-18T05:14:47;16.92;;;4.30;;
46334;SDS011;32051;48.882;9.210;2022-10-18T05:17:13;20.70;;;3.30;;
46334;SDS011;32051;48.882;9.210;2022-10-18T05:19:39;13.25;;;3.38;;
46334;SDS011;32051;48.882;9.210;2022-10-18T05:22:05;14.32;;;3.80;;
46334;SDS011;32051;48.882;9.210;2022-10-18T05:24:32;13.10;;;3.97;;
46334;SDS011;32051;48.882;9.210;2022-10-18T05:26:58;12.88;;;4.32;;
46334;SDS011;32051;48.882;9.210;2022-10-18T05:29:24;14.90;;;3.97;;
46334;SDS011;32051;48.882;9.210;2022-10-18T05:31:50;24.75;;;4.13;;
46334;SDS011;32051;48.882;9.210;2022-10-18T05:34:16;16.08;;;4.22;;
46334;SDS011;32051;48.882;9.210;2022-10-18T05:36:42;11.73;;;4.45;;
46334;SDS011;32051;48.882;9.210;2022-10-18T05:39:08;11.75;;;4.03;;
46334;SDS011;32051;48.882;9.210;2022-10-18T05:41:34;8.38;;;3.58;;
46334;SDS011;32051;48.882;9.210;2022-10-18T05:44:04;11.48;;;3.25;;
46334;SDS011;32051;48.882;9.210;2022-10-18T05:46:30;16.17;;;3.58;;
46334;SDS011;32051;48.882;9.210;2022-10-18T05:48:57;8.90;;;4.18;;
46334;SDS011;32051;48.882;9.210;2022-10-18T05:51:23;7.53;;;4.03;;
46334;SDS011;32051;48.882;9.210;2022-10-18T05:53:49;19.20;;;4.15;;
46334;SDS011;32051;48.882;9.210;2022-10-18T05:56:15;10.82;;;4.07;;
46334;SDS011;32051;48.882;9.210;2022-10-18T05:58:41;13.30;;;5.15;;
46334;SDS011;32051;48.882;9.210;2022-10-18T06:01:08;10.73;;;3.80;;
46334;SDS011;32051;48.882;9.210;2022-10-18T06:03:34;11.00;;;3.80;;
46334;SDS011;32051;48.882;9.210;2022-10-18T06:06:01;6.90;;;3.25;;
46334;SDS011;32051;48.882;9.210;2022-10-18T06:08:27;9.27;;;4.30;;
46334;SDS011;32051;48.882;9.210;2022-10-18T06:10:53;25.50;;;3.90;;
46334;SDS011;32051;48.882;9.210;2022-10-18T06:13:19;13.27;;;5.03;;
46334;SDS011;32051;48.882;9.210;2022-10-18T06:15:45;20.13;;;4.45;;
46334;SDS011;32051;48.882;9.210;2022-10-18T06:18:11;12.32;;;4.10;;
46334;SDS011;32051;48.882;9.210;2022-10-18T06:20:37;11.85;;;4.20;;
46334;SDS011;32051;48.882;9.210;2022-10-18T06:23:03;16.10;;;4.20;;
46334;SDS011;32051;48.882;9.210;2022-10-18T06:25:29;12.02;;;3.72;;
46334;SDS011;32051;48.882;9.210;2022-10-18T06:27:55;13.20;;;4.13;;
46334;SDS011;32051;48.882;9.210;2022-10-18T06:30:21;9.73;;;3.45;;
46334;SDS011;32051;48.882;9.210;2022-10-18T06:32:47;28.85;;;5.28;;
46334;SDS011;32051;48.882;9.210;2022-10-18T06:35:13;16.45;;;4.10;;
46334;SDS011;32051;48.882;9.210;2022-10-18T06:37:40;8.27;;;3.65;;
46334;SDS011;32051;48.882;9.210;2022-10-18T06:40:06;14.63;;;3.70;;
46334;SDS011;32051;48.882;9.210;2022-10-18T06:42:32;7.35;;;3.83;;
46334;SDS011;32051;48.882;9.210;2022-10-18T06:44:58;5.00;;;3.58;;
46334;SDS011;32051;48.882;9.210;2022-10-18T06:47:25;5.10;;;3.40;;
46334;SDS011;32051;48.882;9.210;2022-10-18T06:49:51;6.97;;;3.22;;
46334;SDS011;32051;48.882;9.210;2022-10-18T06:52:17;7.05;;;3.30;;
46334;SDS011;32051;48.882;9.210;2022-10-18T06:54:46;4.03;;;3.63;;
46334;SDS011;32051;48.882;9.210;2022-10-18T06:57:12;11.35;;;3.53;;
46334;SDS011;32051;48.882;9.210;2022-10-18T06:59:38;4.38;;;2.90;;
46334;SDS011;32051;48.882;9.210;2022-10-18T07:02:04;10.68;;;4.20;;
46334;SDS011;32051;48.882;9.210;2022-10-18T07:04:30;8.13;;;3.65;;
46334;SDS011;32051;48.882;9.210;2022-10-18T07:06:56;4.30;;;2.85;;
46334;SDS011;32051;48.882;9.210;2022-10-18T07:09:22;5.75;;;3.35;;
46334;SDS011;32051;48.882;9.210;2022-10-18T07:11:48;17.38;;;3.20;;
46334;SDS011;32051;48.882;9.210;2022-10-18T07:14:16;16.13;;;2.83;;
46334;SDS011;32051;48.882;9.210;2022-10-18T07:16:42;14.15;;;3.40;;
46334;SDS011;32051;48.882;9.210;2022-10-18T07:19:08;9.75;;;3.40;;
46334;SDS011;32051;48.882;9.210;2022-10-18T07:21:35;8.50;;;3.40;;
46334;SDS011;32051;48.882;9.210;2022-10-18T07:24:01;7.57;;;3.53;;
46334;SDS011;32051;48.882;9.210;2022-10-18T07:26:28;19.52;;;3.05;;
46334;SDS011;32051;48.882;9.210;2022-10-18T07:29:27;3.28;;;2.97;;
46334;SDS011;32051;48.882;9.210;2022-10-18T07:31:46;16.73;;;5.80;;
46334;SDS011;32051;48.882;9.210;2022-10-18T07:34:12;6.82;;;2.70;;
46334;SDS011;32051;48.882;9.210;2022-10-18T07:36:39;6.43;;;3.70;;
46334;SDS011;32051;48.882;9.210;2022-10-18T07:39:05;6.63;;;3.55;;
46334;SDS011;32051;48.882;9.210;2022-10-18T07:41:31;7.88;;;3.20;;
46334;SDS011;32051;48.882;9.210;2022-10-18T07:43:58;10.45;;;3.05;;
46334;SDS011;32051;48.882;9.210;2022-10-18T07:46:24;9.98;;;2.92;;
46334;SDS011;32051;48.882;9.210;2022-10-18T07:48:51;6.63;;;2.47;;
46334;SDS011;32051;48.882;9.210;2022-10-18T07:51:18;8.68;;;2.75;;
46334;SDS011;32051;48.882;9.210;2022-10-18T07:53:44;5.85;;;2.40;;
46334;SDS011;32051;48.882;9.210;2022-10-18T07:56:11;4.47;;;2.28;;
46334;SDS011;32051;48.882;9.210;2022-10-18T07:58:41;13.98;;;3.42;;
46334;SDS011;32051;48.882;9.210;2022-10-18T08:01:07;3.92;;;2.53;;
46334;SDS011;32051;48.882;9.210;2022-10-18T08:03:34;3.80;;;2.13;;
46334;SDS011;32051;48.882;9.210;2022-10-18T08:06:00;7.60;;;3.35;;
46334;SDS011;32051;48.882;9.210;2022-10-18T08:08:27;8.43;;;2.30;;
46334;SDS011;32051;48.882;9.210;2022-10-18T08:10:53;8.82;;;2.10;;
46334;SDS011;32051;48.882;9.210;2022-10-18T08:13:19;4.95;;;2.15;;
46334;SDS011;32051;48.882;9.210;2022-10-18T08:15:45;6.03;;;2.30;;
46334;SDS011;32051;48.882;9.210;2022-10-18T08:18:12;3.75;;;2.10;;
46334;SDS011;32051;48.882;9.210;2022-10-18T08:20:44;5.72;;;2.55;;
46334;SDS011;32051;48.882;9.210;2022-10-18T08:23:11;6.28;;;2.85;;
46334;SDS011;32051;48.882;9.210;2022-10-18T08:25:37;4.50;;;2.00;;
46334;SDS011;32051;48.882;9.210;2022-10-18T08:28:03;4.60;;;1.75;;
46334;SDS011;32051;48.882;9.210;2022-10-18T08:30:29;7.00;;;2.33;;
46334;SDS011;32051;48.882;9.210;2022-10-18T08:32:55;3.78;;;3.15;;
46334;SDS011;32051;48.882;9.210;2022-10-18T08:35:21;3.95;;;2.35;;
46334;SDS011;32051;48.882;9.210;2022-10-18T08:37:47;11.85;;;2.30;;
46334;SDS011;32051;48.882;9.210;2022-10-18T08:40:13;4.50;;;2.28;;
46334;SDS011;32051;48.882;9.210;2022-10-18T08:45:16;5.18;;;2.28;;
46334;SDS011;32051;48.882;9.210;2022-10-18T08:47:43;2.75;;;2.22;;
46334;SDS011;32051;48.882;9.210;2022-10-18T08:50:13;8.57;;;2.28;;
46334;SDS011;32051;48.882;9.210;2022-10-18T08:52:43;3.50;;;2.35;;
46334;SDS011;32051;48.882;9.210;2022-10-18T08:55:26;6.18;;;1.85;;
46334;SDS011;32051;48.882;9.210;2022-10-18T08:57:55;2.60;;;2.40;;
46334;SDS011;32051;48.882;9.210;2022-10-18T09:00:23;3.42;;;1.60;;
46334;SDS011;32051;48.882;9.210;2022-10-18T09:05:21;11.93;;;3.03;;
46334;SDS011;32051;48.882;9.210;2022-10-18T09:13:17;11.43;;;2.90;;
46334;SDS011;32051;48.882;9.210;2022-10-18T09:15:57;2.78;;;2.17;;
46334;SDS011;32051;48.882;9.210;2022-10-18T09:18:31;5.03;;;1.52;;
46334;SDS011;32051;48.882;9.210;2022-10-18T09:21:00;5.95;;;1.70;;
46334;SDS011;32051;48.882;9.210;2022-10-18T09:23:34;10.13;;;1.90;;
46334;SDS011;32051;48.882;9.210;2022-10-18T09:26:14;9.65;;;3.55;;
46334;SDS011;32051;48.882;9.210;2022-10-18T09:34:10;8.98;;;2.80;;
46334;SDS011;32051;48.882;9.210;2022-10-18T09:36:38;12.75;;;3.38;;
46334;SDS011;32051;48.882;9.210;2022-10-18T09:39:14;8.70;;;2.30;;
46334;SDS011;32051;48.882;9.210;2022-10-18T09:41:48;10.25;;;2.72;;
46334;SDS011;32051;48.882;9.210;2022-10-18T09:44:17;10.48;;;2.97;;
46334;SDS011;32051;48.882;9.210;2022-10-18T09:46:50;6.35;;;2.78;;
46334;SDS011;32051;48.882;9.210;2022-10-18T09:49:37;3.37;;;2.10;;
46334;SDS011;32051;48.882;9.210;2022-10-18T09:52:12;10.70;;;2.63;;
46334;SDS011;32051;48.882;9.210;2022-10-18T09:54:45;9.52;;;3.72;;
46334;SDS011;32051;48.882;9.210;2022-10-18T09:57:14;6.32;;;2.30;;
46334;SDS011;32051;48.882;9.210;2022-10-18T09:59:42;11.40;;;2.15;;
46334;SDS011;32051;48.882;9.210;2022-10-18T10:02:12;10.30;;;2.30;;
46334;SDS011;32051;48.882;9.210;2022-10-18T10:04:38;13.68;;;3.10;;
46334;SDS011;32051;48.882;9.210;2022-10-18T10:07:06;8.52;;;3.20;;
46334;SDS011;32051;48.882;9.210;2022-10-18T10:09:39;6.65;;;3.85;;
46334;SDS011;32051;48.882;9.210;2022-10-18T10:12:21;14.32;;;3.10;;
46334;SDS011;32051;48.882;9.210;2022-10-18T10:14:49;17.90;;;4.00;;
46334;SDS011;32051;48.882;9.210;2022-10-18T10:17:23;17.58;;;5.03;;
46334;SDS011;32051;48.882;9.210;2022-10-18T10:20:01;10.55;;;2.83;;
46334;SDS011;32051;48.882;9.210;2022-10-18T10:22:34;8.50;;;2.28;;
46334;SDS011;32051;48.882;9.210;2022-10-18T10:25:00;17.08;;;2.10;;
46334;SDS011;32051;48.882;9.210;2022-10-18T10:27:30;4.47;;;1.77;;
46334;SDS011;32051;48.882;9.210;2022-10-18T10:30:00;10.60;;;2.40;;
46334;SDS011;32051;48.882;9.210;2022-10-18T10:32:31;8.60;;;2.35;;
46334;SDS011;32051;48.882;9.210;2022-10-18T10:35:29;2.22;;;2.08;;
46334;SDS011;32051;48.882;9.210;2022-10-18T10:37:57;4.60;;;2.00;;
46334;SDS011;32051;48.882;9.210;2022-10-18T10:40:27;5.57;;;1.75;;
46334;SDS011;32051;48.882;9.210;2022-10-18T10:45:30;12.23;;;2.08;;
46334;SDS011;32051;48.882;9.210;2022-10-18T10:48:04;7.60;;;2.03;;
46334;SDS011;32051;48.882;9.210;2022-10-18T10:50:32;8.70;;;3.10;;
46334;SDS011;32051;48.882;9.210;2022-10-18T10:55:52;16.48;;;1.95;;
46334;SDS011;32051;48.882;9.210;2022-10-18T10:58:20;16.00;;;1.95;;
46334;SDS011;32051;48.882;9.210;2022-10-18T11:00:46;6.15;;;1.63;;
46334;SDS011;32051;48.882;9.210;2022-10-18T11:03:13;5.88;;;1.92;;
46334;SDS011;32051;48.882;9.210;2022-10-18T11:05:50;3.25;;;2.95;;
46334;SDS011;32051;48.882;9.210;2022-10-18T11:08:50;6.50;;;1.85;;
46334;SDS011;32051;48.882;9.210;2022-10-18T11:11:20;6.68;;;1.85;;
46334;SDS011;32051;48.882;9.210;2022-10-18T11:14:37;12.00;;;1.50;;
46334;SDS011;32051;48.882;9.210;2022-10-18T11:17:21;14.43;;;1.80;;
46334;SDS011;32051;48.882;9.210;2022-10-18T11:22:29;8.02;;;1.33;;
46334;SDS011;32051;48.882;9.210;2022-10-18T11:25:00;10.50;;;1.30;;
46334;SDS011;32051;48.882;9.210;2022-10-18T11:27:28;3.55;;;1.60;;
46334;SDS011;32051;48.882;9.210;2022-10-18T11:30:04;5.20;;;1.20;;
46334;SDS011;32051;48.882;9.210;2022-10-18T11:36:01;7.25;;;1.00;;
46334;SDS011;32051;48.882;9.210;2022-10-18T11:40:42;2.47;;;1.45;;
46334;SDS011;32051;48.882;9.210;2022-10-18T11:43:22;7.25;;;1.42;;
46334;SDS011;32051;48.882;9.210;2022-10-18T11:46:01;8.02;;;1.73;;
46334;SDS011;32051;48.882;9.210;2022-10-18T12:04:37;11.45;;;1.23;;
46334;SDS011;32051;48.882;9.210;2022-10-18T12:07:08;4.38;;;1.60;;
46334;SDS011;32051;48.882;9.210;2022-10-18T12:09:40;2.92;;;1.20;;
46334;SDS011;32051;48.882;9.210;2022-10-18T12:12:17;6.95;;;1.55;;
46334;SDS011;32051;48.882;9.210;2022-10-18T12:17:34;2.15;;;1.58;;
46334;SDS011;32051;48.882;9.210;2022-10-18T12:20:10;7.10;;;1.85;;
46334;SDS011;32051;48.882;9.210;2022-10-18T12:23:08;6.15;;;1.83;;
46334;SDS011;32051;48.882;9.210;2022-10-18T12:25:48;4.35;;;1.63;;
46334;SDS011;32051;48.882;9.210;2022-10-18T12:30:50;6.30;;;1.52;;
46334;SDS011;32051;48.882;9.210;2022-10-18T12:33:19;4.05;;;1.42;;
46334;SDS011;32051;48.882;9.210;2022-10-18T12:38:29;11.88;;;2.03;;
46334;SDS011;32051;48.882;9.210;2022-10-18T12:40:57;3.78;;;1.23;;
46334;SDS011;32051;48.882;9.210;2022-10-18T12:43:24;5.45;;;1.00;;
46334;SDS011;32051;48.882;9.210;2022-10-18T12:45:58;5.35;;;1.33;;
46334;SDS011;32051;48.882;9.210;2022-10-18T12:48:32;2.45;;;1.75;;
46334;SDS011;32051;48.882;9.210;2022-10-18T12:51:19;3.83;;;1.40;;
46334;SDS011;32051;48.882;9.210;2022-10-18T12:53:53;7.13;;;1.52;;
46334;SDS011;32051;48.882;9.210;2022-10-18T12:59:52;1.23;;;0.98;;
46334;SDS011;32051;48.882;9.210;2022-10-18T13:09:41;1.67;;;1.00;;
46334;SDS011;32051;48.882;9.210;2022-10-18T13:17:32;2.80;;;1.10;;
46334;SDS011;32051;48.882;9.210;2022-10-18T13:22:53;1.23;;;0.80;;
46334;SDS011;32051;48.882;9.210;2022-10-18T13:30:52;2.10;;;1.05;;
46334;SDS011;32051;48.882;9.210;2022-10-18T13:35:52;5.97;;;2.08;;
46334;SDS011;32051;48.882;9.210;2022-10-18T13:41:10;3.45;;;1.38;;
46334;SDS011;32051;48.882;9.210;2022-10-18T13:46:18;3.15;;;1.33;;
46334;SDS011;32051;48.882;9.210;2022-10-18T13:48:45;11.13;;;1.77;;
46334;SDS011;32051;48.882;9.210;2022-10-18T13:51:23;7.10;;;1.88;;
46334;SDS011;32051;48.882;9.210;2022-10-18T13:54:02;2.30;;;1.35;;
46334;SDS011;32051;48.882;9.210;2022-10-18T14:06:39;4.32;;;2.00;;
46334;SDS011;32051;48.882;9.210;2022-10-18T14:09:23;4.70;;;1.20;;
46334;SDS011;32051;48.882;9.210;2022-10-18T14:14:53;5.80;;;1.80;;
46334;SDS011;32051;48.882;9.210;2022-10-18T14:17:24;6.45;;;1.40;;
46334;SDS011;32051;48.882;9.210;2022-10-18T14:20:03;2.75;;;1.30;;
46334;SDS011;32051;48.882;9.210;2022-10-18T14:22:42;2.33;;;1.42;;
46334;SDS011;32051;48.882;9.210;2022-10-18T14:25:28;5.18;;;1.58;;
46334;SDS011;32051;48.882;9.210;2022-10-18T14:30:29;1.13;;;1.02;;
46334;SDS011;32051;48.882;9.210;2022-10-18T14:32:55;4.03;;;1.55;;
46334;SDS011;32051;48.882;9.210;2022-10-18T14:35:26;4.07;;;1.40;;
46334;SDS011;32051;48.882;9.210;2022-10-18T14:37:53;1.95;;;1.77;;
46334;SDS011;32051;48.882;9.210;2022-10-18T14:42:52;12.35;;;2.47;;
46334;SDS011;32051;48.882;9.210;2022-10-18T14:45:18;7.57;;;1.30;;
46334;SDS011;32051;48.882;9.210;2022-10-18T14:47:44;5.63;;;1.60;;
46334;SDS011;32051;48.882;9.210;2022-10-18T14:50:20;9.73;;;2.25;;
46334;SDS011;32051;48.882;9.210;2022-10-18T14:52:47;3.95;;;1.60;;
46334;SDS011;32051;48.882;9.210;2022-10-18T14:55:18;3.08;;;1.40;;
46334;SDS011;32051;48.882;9.210;2022-10-18T14:57:45;3.63;;;1.67;;
46334;SDS011;32051;48.882;9.210;2022-10-18T15:00:19;13.93;;;2.00;;
46334;SDS011;32051;48.882;9.210;2022-10-18T15:02:46;5.68;;;2.80;;
46334;SDS011;32051;48.882;9.210;2022-10-18T15:07:42;4.38;;;1.30;;
46334;SDS011;32051;48.882;9.210;2022-10-18T15:12:53;6.20;;;2.00;;
46334;SDS011;32051;48.882;9.210;2022-10-18T15:15:26;1.85;;;1.75;;
46334;SDS011;32051;48.882;9.210;2022-10-18T15:17:53;4.00;;;1.40;;
46334;SDS011;32051;48.882;9.210;2022-10-18T15:20:20;6.22;;;2.00;;
46334;SDS011;32051;48.882;9.210;2022-10-18T15:22:49;9.25;;;2.88;;
46334;SDS011;32051;48.882;9.210;2022-10-18T15:25:16;4.97;;;1.88;;
46334;SDS011;32051;48.882;9.210;2022-10-18T15:27:46;3.67;;;1.77;;
46334;SDS011;32051;48.882;9.210;2022-10-18T15:30:15;3.10;;;1.75;;
46334;SDS011;32051;48.882;9.210;2022-10-18T15:32:55;2.15;;;1.88;;
46334;SDS011;32051;48.882;9.210;2022-10-18T15:35:23;4.20;;;1.70;;
46334;SDS011;32051;48.882;9.210;2022-10-18T15:37:50;1.65;;;1.55;;
46334;SDS011;32051;48.882;9.210;2022-10-18T15:42:49;5.55;;;1.65;;
46334;SDS011;32051;48.882;9.210;2022-10-18T15:50:42;3.55;;;2.05;;
46334;SDS011;32051;48.882;9.210;2022-10-18T15:56:06;11.75;;;1.92;;
46334;SDS011;32051;48.882;9.210;2022-10-18T16:01:01;8.57;;;2.95;;
46334;SDS011;32051;48.882;9.210;2022-10-18T16:03:29;3.83;;;1.60;;
46334;SDS011;32051;48.882;9.210;2022-10-18T16:05:58;4.18;;;1.88;;
46334;SDS011;32051;48.882;9.210;2022-10-18T16:08:27;2.00;;;1.52;;
46334;SDS011;32051;48.882;9.210;2022-10-18T16:11:01;2.50;;;2.30;;
46334;SDS011;32051;48.882;9.210;2022-10-18T16:13:27;3.65;;;2.08;;
46334;SDS011;32051;48.882;9.210;2022-10-18T16:15:53;1.70;;;1.35;;
46334;SDS011;32051;48.882;9.210;2022-10-18T16:18:20;3.78;;;1.80;;
46334;SDS011;32051;48.882;9.210;2022-10-18T16:20:46;2.92;;;1.58;;
46334;SDS011;32051;48.882;9.210;2022-10-18T16:25:41;2.05;;;1.85;;
46334;SDS011;32051;48.882;9.210;2022-10-18T16:28:11;2.00;;;1.90;;
46334;SDS011;32051;48.882;9.210;2022-10-18T16:30:37;2.17;;;1.90;;
46334;SDS011;32051;48.882;9.210;2022-10-18T16:33:04;2.00;;;1.52;;
46334;SDS011;32051;48.882;9.210;2022-10-18T16:35:31;4.85;;;2.03;;
46334;SDS011;32051;48.882;9.210;2022-10-18T16:37:59;3.40;;;2.10;;
46334;SDS011;32051;48.882;9.210;2022-10-18T16:40:26;2.67;;;2.05;;
46334;SDS011;32051;48.882;9.210;2022-10-18T16:42:52;3.45;;;2.17;;
46334;SDS011;32051;48.882;9.210;2022-10-18T16:45:18;16.23;;;2.92;;
46334;SDS011;32051;48.882;9.210;2022-10-18T16:47:44;1.98;;;1.88;;
46334;SDS011;32051;48.882;9.210;2022-10-18T16:50:12;1.98;;;1.88;;
46334;SDS011;32051;48.882;9.210;2022-10-18T16:52:38;2.00;;;1.90;;
46334;SDS011;32051;48.882;9.210;2022-10-18T16:55:05;4.68;;;2.05;;
46334;SDS011;32051;48.882;9.210;2022-10-18T16:57:39;4.60;;;2.22;;
46334;SDS011;32051;48.882;9.210;2022-10-18T17:00:05;6.20;;;3.10;;
46334;SDS011;32051;48.882;9.210;2022-10-18T17:02:31;2.60;;;2.40;;
46334;SDS011;32051;48.882;9.210;2022-10-18T17:04:57;9.57;;;1.95;;
46334;SDS011;32051;48.882;9.210;2022-10-18T17:07:24;2.95;;;2.70;;
46334;SDS011;32051;48.882;9.210;2022-10-18T17:09:50;2.75;;;2.55;;
46334;SDS011;32051;48.882;9.210;2022-10-18T17:12:16;2.75;;;2.33;;
46334;SDS011;32051;48.882;9.210;2022-10-18T17:14:42;4.57;;;2.38;;
46334;SDS011;32051;48.882;9.210;2022-10-18T17:17:11;9.32;;;2.30;;
46334;SDS011;32051;48.882;9.210;2022-10-18T17:19:37;3.42;;;2.95;;